sensor_id;sensor_type;location;lat;lon;timestamp;P1;durP1;ratioP1;P2;durP2;ratioP2
7001;SDS011;3541;53.230;10.518;2024-02-21T00:02:04;29.03;;;14.33;;
7001;SDS011;3541;53.230;10.518;2024-02-21T00:04:31;36.27;;;12.47;;
7001;SDS011;3541;53.230;10.518;2024-02-21T00:06:58;26.00;;;12.40;;
7001;SDS011;3541;53.230;10.518;2024-02-21T00:09:26;30.67;;;13.10;;
7001;SDS011;3541;53.230;10.518;2024-02-21T00:11:53;27.67;;;12.90;;
7001;SDS011;3541;53.230;10.518;2024-02-21T00:14:20;31.53;;;12.93;;
7001;SDS011;3541;53.230;10.518;2024-02-21T00:16:46;26.57;;;12.43;;
7001;SDS011;3541;53.230;10.518;2024-02-21T00:19:13;27.60;;;13.50;;
7001;SDS011;3541;53.230;10.518;2024-02-21T00:21:39;24.33;;;12.93;;
7001;SDS011;3541;53.230;10.518;2024-02-21T00:24:06;27.37;;;13.40;;
7001;SDS011;3541;53.230;10.518;2024-02-21T00:26:34;26.70;;;12.23;;
7001;SDS011;3541;53.230;10.518;2024-02-21T00:29:01;22.63;;;12.30;;
7001;SDS011;3541;53.230;10.518;2024-02-21T00:31:28;24.40;;;13.07;;
7001;SDS011;3541;53.230;10.518;2024-02-21T00:33:54;23.63;;;12.63;;
7001;SDS011;3541;53.230;10.518;2024-02-21T00:36:21;25.20;;;11.77;;
7001;SDS011;3541;53.230;10.518;2024-02-21T00:38:47;25.87;;;12.17;;
7001;SDS011;3541;53.230;10.518;2024-02-21T00:41:14;25.10;;;13.03;;
7001;SDS011;3541;53.230;10.518;2024-02-21T00:43:42;26.53;;;12.77;;
7001;SDS011;3541;53.230;10.518;2024-02-21T00:46:08;63.87;;;31.13;;
7001;SDS011;3541;53.230;10.518;2024-02-21T00:48:35;31.80;;;15.97;;
7001;SDS011;3541;53.230;10.518;2024-02-21T00:51:02;20.87;;;11.93;;
7001;SDS011;3541;53.230;10.518;2024-02-21T00:53:28;23.53;;;11.73;;
7001;SDS011;3541;53.230;10.518;2024-02-21T00:55:55;25.23;;;12.37;;
7001;SDS011;3541;53.230;10.518;2024-02-21T00:58:21;23.73;;;11.60;;
7001;SDS011;3541;53.230;10.518;2024-02-21T01:00:49;21.53;;;12.70;;
7001;SDS011;3541;53.230;10.518;2024-02-21T01:03:16;24.13;;;11.90;;
7001;SDS011;3541;53.230;10.518;2024-02-21T01:05:43;23.87;;;11.50;;
7001;SDS011;3541;53.230;10.518;2024-02-21T01:08:09;22.40;;;11.60;;
7001;SDS011;3541;53.230;10.518;2024-02-21T01:10:36;21.97;;;12.13;;
7001;SDS011;3541;53.230;10.518;2024-02-21T01:13:02;22.17;;;11.03;;
7001;SDS011;3541;53.230;10.518;2024-02-21T01:15:29;21.80;;;10.87;;
7001;SDS011;3541;53.230;10.518;2024-02-21T01:17:57;26.00;;;13.10;;
7001;SDS011;3541;53.230;10.518;2024-02-21T01:20:23;30.40;;;16.30;;
7001;SDS011;3541;53.230;10.518;2024-02-21T01:22:50;44.17;;;22.33;;
7001;SDS011;3541;53.230;10.518;2024-02-21T01:25:17;25.90;;;13.23;;
7001;SDS011;3541;53.230;10.518;2024-02-21T01:27:43;29.30;;;12.47;;
7001;SDS011;3541;53.230;10.518;2024-02-21T01:30:10;22.23;;;12.27;;
7001;SDS011;3541;53.230;10.518;2024-02-21T01:32:38;26.63;;;12.03;;
7001;SDS011;3541;53.230;10.518;2024-02-21T01:35:06;23.60;;;12.80;;
7001;SDS011;3541;53.230;10.518;2024-02-21T01:37:33;26.37;;;12.37;;
7001;SDS011;3541;53.230;10.518;2024-02-21T01:40:00;22.63;;;12.17;;
7001;SDS011;3541;53.230;10.518;2024-02-21T01:42:28;26.60;;;13.33;;
7001;SDS011;3541;53.230;10.518;2024-02-21T01:44:54;27.00;;;12.83;;
7001;SDS011;3541;53.230;10.518;2024-02-21T01:47:21;26.53;;;12.87;;
7001;SDS011;3541;53.230;10.518;2024-02-21T01:49:48;24.23;;;12.77;;
7001;SDS011;3541;53.230;10.518;2024-02-21T01:52:17;25.97;;;13.87;;
7001;SDS011;3541;53.230;10.518;2024-02-21T01:54:44;24.73;;;13.73;;
7001;SDS011;3541;53.230;10.518;2024-02-21T01:57:12;27.93;;;14.23;;
7001;SDS011;3541;53.230;10.518;2024-02-21T01:59:39;31.33;;;17.63;;
7001;SDS011;3541;53.230;10.518;2024-02-21T02:02:06;26.03;;;14.40;;
7001;SDS011;3541;53.230;10.518;2024-02-21T02:04:33;25.97;;;13.30;;
7001;SDS011;3541;53.230;10.518;2024-02-21T02:07:01;31.17;;;14.20;;
7001;SDS011;3541;53.230;10.518;2024-02-21T02:09:31;27.67;;;14.63;;
7001;SDS011;3541;53.230;10.518;2024-02-21T02:11:58;26.73;;;14.40;;
7001;SDS011;3541;53.230;10.518;2024-02-21T02:14:24;24.97;;;14.33;;
7001;SDS011;3541;53.230;10.518;2024-02-21T02:16:51;32.83;;;15.57;;
7001;SDS011;3541;53.230;10.518;2024-02-21T02:19:18;27.73;;;14.13;;
7001;SDS011;3541;53.230;10.518;2024-02-21T02:21:46;25.87;;;13.33;;
7001;SDS011;3541;53.230;10.518;2024-02-21T02:24:19;44.37;;;24.47;;
7001;SDS011;3541;53.230;10.518;2024-02-21T02:26:47;33.60;;;15.17;;
7001;SDS011;3541;53.230;10.518;2024-02-21T02:29:14;31.90;;;14.23;;
7001;SDS011;3541;53.230;10.518;2024-02-21T02:31:41;34.27;;;15.27;;
7001;SDS011;3541;53.230;10.518;2024-02-21T02:34:08;27.73;;;14.27;;
7001;SDS011;3541;53.230;10.518;2024-02-21T02:36:35;31.27;;;16.10;;
7001;SDS011;3541;53.230;10.518;2024-02-21T02:39:02;29.33;;;15.67;;
7001;SDS011;3541;53.230;10.518;2024-02-21T02:41:29;25.60;;;14.63;;
7001;SDS011;3541;53.230;10.518;2024-02-21T02:43:56;33.30;;;15.43;;
7001;SDS011;3541;53.230;10.518;2024-02-21T02:46:23;27.03;;;15.03;;
7001;SDS011;3541;53.230;10.518;2024-02-21T02:48:49;30.43;;;14.20;;
7001;SDS011;3541;53.230;10.518;2024-02-21T02:51:16;24.67;;;14.30;;
7001;SDS011;3541;53.230;10.518;2024-02-21T02:53:43;29.40;;;14.83;;
7001;SDS011;3541;53.230;10.518;2024-02-21T02:56:13;26.63;;;14.40;;
7001;SDS011;3541;53.230;10.518;2024-02-21T02:58:41;25.60;;;15.00;;
7001;SDS011;3541;53.230;10.518;2024-02-21T03:01:08;26.10;;;14.63;;
7001;SDS011;3541;53.230;10.518;2024-02-21T03:03:35;29.57;;;15.90;;
7001;SDS011;3541;53.230;10.518;2024-02-21T03:06:01;30.10;;;14.30;;
7001;SDS011;3541;53.230;10.518;2024-02-21T03:08:28;25.67;;;15.87;;
7001;SDS011;3541;53.230;10.518;2024-02-21T03:10:54;28.70;;;14.93;;
7001;SDS011;3541;53.230;10.518;2024-02-21T03:13:21;32.43;;;16.30;;
7001;SDS011;3541;53.230;10.518;2024-02-21T03:15:49;38.27;;;15.80;;
7001;SDS011;3541;53.230;10.518;2024-02-21T03:18:16;30.17;;;15.23;;
7001;SDS011;3541;53.230;10.518;2024-02-21T03:20:42;30.83;;;15.70;;
7001;SDS011;3541;53.230;10.518;2024-02-21T03:23:09;36.53;;;16.50;;
7001;SDS011;3541;53.230;10.518;2024-02-21T03:25:35;25.47;;;14.43;;
7001;SDS011;3541;53.230;10.518;2024-02-21T03:28:02;38.53;;;18.57;;
7001;SDS011;3541;53.230;10.518;2024-02-21T03:30:29;32.03;;;15.50;;
7001;SDS011;3541;53.230;10.518;2024-02-21T03:32:57;32.67;;;16.43;;
7001;SDS011;3541;53.230;10.518;2024-02-21T03:35:23;30.87;;;15.73;;
7001;SDS011;3541;53.230;10.518;2024-02-21T03:37:51;33.03;;;17.13;;
7001;SDS011;3541;53.230;10.518;2024-02-21T03:40:18;28.50;;;15.00;;
7001;SDS011;3541;53.230;10.518;2024-02-21T03:42:44;29.10;;;14.73;;
7001;SDS011;3541;53.230;10.518;2024-02-21T03:45:11;31.60;;;16.57;;
7001;SDS011;3541;53.230;10.518;2024-02-21T03:47:37;32.90;;;16.67;;
7001;SDS011;3541;53.230;10.518;2024-02-21T03:50:06;29.00;;;15.57;;
7001;SDS011;3541;53.230;10.518;2024-02-21T03:52:33;30.23;;;14.30;;
7001;SDS011;3541;53.230;10.518;2024-02-21T03:55:00;27.87;;;15.73;;
7001;SDS011;3541;53.230;10.518;2024-02-21T03:57:27;31.30;;;16.23;;
7001;SDS011;3541;53.230;10.518;2024-02-21T03:59:53;36.03;;;15.70;;
7001;SDS011;3541;53.230;10.518;2024-02-21T04:02:20;28.87;;;15.20;;
7001;SDS011;3541;53.230;10.518;2024-02-21T04:04:46;27.77;;;14.43;;
7001;SDS011;3541;53.230;10.518;2024-02-21T04:07:14;28.87;;;13.80;;
7001;SDS011;3541;53.230;10.518;2024-02-21T04:09:41;30.30;;;15.60;;
7001;SDS011;3541;53.230;10.518;2024-02-21T04:12:08;29.00;;;15.00;;
7001;SDS011;3541;53.230;10.518;2024-02-21T04:14:35;28.47;;;14.47;;
7001;SDS011;3541;53.230;10.518;2024-02-21T04:17:01;26.67;;;14.20;;
7001;SDS011;3541;53.230;10.518;2024-02-21T04:19:30;31.03;;;14.60;;
7001;SDS011;3541;53.230;10.518;2024-02-21T04:21:57;26.97;;;13.50;;
7001;SDS011;3541;53.230;10.518;2024-02-21T04:24:24;31.53;;;14.00;;
7001;SDS011;3541;53.230;10.518;2024-02-21T04:26:51;28.03;;;15.00;;
7001;SDS011;3541;53.230;10.518;2024-02-21T04:29:18;29.93;;;14.37;;
7001;SDS011;3541;53.230;10.518;2024-02-21T04:31:44;28.47;;;14.20;;
7001;SDS011;3541;53.230;10.518;2024-02-21T04:34:11;28.37;;;14.10;;
7001;SDS011;3541;53.230;10.518;2024-02-21T04:36:37;28.37;;;14.17;;
7001;SDS011;3541;53.230;10.518;2024-02-21T04:39:04;27.87;;;13.23;;
7001;SDS011;3541;53.230;10.518;2024-02-21T04:41:32;31.03;;;14.20;;
7001;SDS011;3541;53.230;10.518;2024-02-21T04:43:58;27.97;;;15.47;;
7001;SDS011;3541;53.230;10.518;2024-02-21T04:46:25;28.07;;;13.87;;
7001;SDS011;3541;53.230;10.518;2024-02-21T04:48:51;31.67;;;14.80;;
7001;SDS011;3541;53.230;10.518;2024-02-21T04:51:18;30.43;;;15.33;;
7001;SDS011;3541;53.230;10.518;2024-02-21T04:53:44;34.27;;;13.53;;
7001;SDS011;3541;53.230;10.518;2024-02-21T04:56:11;26.57;;;14.53;;
7001;SDS011;3541;53.230;10.518;2024-02-21T04:58:39;27.67;;;13.93;;
7001;SDS011;3541;53.230;10.518;2024-02-21T05:01:06;30.73;;;14.77;;
7001;SDS011;3541;53.230;10.518;2024-02-21T05:03:32;25.83;;;13.73;;
7001;SDS011;3541;53.230;10.518;2024-02-21T05:05:59;27.10;;;14.23;;
7001;SDS011;3541;53.230;10.518;2024-02-21T05:08:26;29.13;;;13.90;;
7001;SDS011;3541;53.230;10.518;2024-02-21T05:10:53;26.33;;;14.47;;
7001;SDS011;3541;53.230;10.518;2024-02-21T05:13:19;26.70;;;13.77;;
7001;SDS011;3541;53.230;10.518;2024-02-21T05:15:47;22.97;;;13.80;;
7001;SDS011;3541;53.230;10.518;2024-02-21T05:18:14;24.33;;;12.87;;
7001;SDS011;3541;53.230;10.518;2024-02-21T05:20:40;24.10;;;13.83;;
7001;SDS011;3541;53.230;10.518;2024-02-21T05:23:07;22.13;;;13.67;;
7001;SDS011;3541;53.230;10.518;2024-02-21T05:25:34;25.23;;;12.60;;
7001;SDS011;3541;53.230;10.518;2024-02-21T05:28:00;22.67;;;13.17;;
7001;SDS011;3541;53.230;10.518;2024-02-21T05:30:28;26.97;;;12.90;;
7001;SDS011;3541;53.230;10.518;2024-02-21T05:32:56;28.80;;;13.53;;
7001;SDS011;3541;53.230;10.518;2024-02-21T05:35:24;23.23;;;13.57;;
7001;SDS011;3541;53.230;10.518;2024-02-21T05:37:52;26.93;;;13.67;;
7001;SDS011;3541;53.230;10.518;2024-02-21T05:40:19;24.20;;;13.00;;
7001;SDS011;3541;53.230;10.518;2024-02-21T05:42:45;22.07;;;12.73;;
7001;SDS011;3541;53.230;10.518;2024-02-21T05:45:12;23.37;;;12.23;;
7001;SDS011;3541;53.230;10.518;2024-02-21T05:47:40;20.80;;;11.83;;
7001;SDS011;3541;53.230;10.518;2024-02-21T05:50:08;19.33;;;11.53;;
7001;SDS011;3541;53.230;10.518;2024-02-21T05:52:35;20.60;;;12.17;;
7001;SDS011;3541;53.230;10.518;2024-02-21T05:55:02;20.73;;;11.73;;
7001;SDS011;3541;53.230;10.518;2024-02-21T05:57:29;18.43;;;11.23;;
7001;SDS011;3541;53.230;10.518;2024-02-21T05:59:56;21.17;;;12.13;;
7001;SDS011;3541;53.230;10.518;2024-02-21T06:02:22;22.13;;;12.37;;
7001;SDS011;3541;53.230;10.518;2024-02-21T06:04:49;16.40;;;10.97;;
7001;SDS011;3541;53.230;10.518;2024-02-21T06:07:17;19.20;;;11.40;;
7001;SDS011;3541;53.230;10.518;2024-02-21T06:09:43;18.17;;;10.93;;
7001;SDS011;3541;53.230;10.518;2024-02-21T06:12:10;20.23;;;11.33;;
7001;SDS011;3541;53.230;10.518;2024-02-21T06:14:36;19.97;;;10.87;;
7001;SDS011;3541;53.230;10.518;2024-02-21T06:17:03;22.03;;;11.13;;
7001;SDS011;3541;53.230;10.518;2024-02-21T06:19:30;14.40;;;9.83;;
7001;SDS011;3541;53.230;10.518;2024-02-21T06:21:56;17.07;;;10.33;;
7001;SDS011;3541;53.230;10.518;2024-02-21T06:24:24;18.50;;;11.23;;
7001;SDS011;3541;53.230;10.518;2024-02-21T06:26:50;18.77;;;10.97;;
7001;SDS011;3541;53.230;10.518;2024-02-21T06:29:17;19.20;;;10.93;;
7001;SDS011;3541;53.230;10.518;2024-02-21T06:31:44;17.47;;;10.40;;
7001;SDS011;3541;53.230;10.518;2024-02-21T06:34:10;17.27;;;10.37;;
7001;SDS011;3541;53.230;10.518;2024-02-21T06:36:37;19.77;;;10.83;;
7001;SDS011;3541;53.230;10.518;2024-02-21T06:39:03;19.87;;;10.23;;
7001;SDS011;3541;53.230;10.518;2024-02-21T06:41:33;15.40;;;9.67;;
7001;SDS011;3541;53.230;10.518;2024-02-21T06:44:00;15.70;;;9.90;;
7001;SDS011;3541;53.230;10.518;2024-02-21T06:46:27;17.83;;;10.53;;
7001;SDS011;3541;53.230;10.518;2024-02-21T06:48:54;18.43;;;9.90;;
7001;SDS011;3541;53.230;10.518;2024-02-21T06:51:22;15.33;;;10.27;;
7001;SDS011;3541;53.230;10.518;2024-02-21T06:53:49;16.03;;;8.97;;
7001;SDS011;3541;53.230;10.518;2024-02-21T06:56:16;13.30;;;8.40;;
7001;SDS011;3541;53.230;10.518;2024-02-21T06:58:44;14.90;;;9.23;;
7001;SDS011;3541;53.230;10.518;2024-02-21T07:01:11;13.10;;;9.27;;
7001;SDS011;3541;53.230;10.518;2024-02-21T07:03:38;15.80;;;9.27;;
7001;SDS011;3541;53.230;10.518;2024-02-21T07:06:04;14.07;;;9.37;;
7001;SDS011;3541;53.230;10.518;2024-02-21T07:08:31;12.63;;;9.00;;
7001;SDS011;3541;53.230;10.518;2024-02-21T07:10:57;14.00;;;9.07;;
7001;SDS011;3541;53.230;10.518;2024-02-21T07:13:24;76.57;;;47.03;;
7001;SDS011;3541;53.230;10.518;2024-02-21T07:15:52;98.87;;;65.60;;
7001;SDS011;3541;53.230;10.518;2024-02-21T07:18:18;14.37;;;9.00;;
7001;SDS011;3541;53.230;10.518;2024-02-21T07:20:45;15.70;;;8.60;;
7001;SDS011;3541;53.230;10.518;2024-02-21T07:23:12;13.97;;;8.53;;
7001;SDS011;3541;53.230;10.518;2024-02-21T07:25:38;10.63;;;7.67;;
7001;SDS011;3541;53.230;10.518;2024-02-21T07:28:05;11.67;;;7.47;;
7001;SDS011;3541;53.230;10.518;2024-02-21T07:30:33;12.33;;;7.47;;
7001;SDS011;3541;53.230;10.518;2024-02-21T07:33:01;10.87;;;7.93;;
7001;SDS011;3541;53.230;10.518;2024-02-21T07:35:28;9.97;;;7.40;;
7001;SDS011;3541;53.230;10.518;2024-02-21T07:37:55;11.47;;;7.67;;
7001;SDS011;3541;53.230;10.518;2024-02-21T07:40:21;10.90;;;6.53;;
7001;SDS011;3541;53.230;10.518;2024-02-21T07:42:48;10.00;;;7.03;;
7001;SDS011;3541;53.230;10.518;2024-02-21T07:45:15;9.83;;;6.77;;
7001;SDS011;3541;53.230;10.518;2024-02-21T07:47:43;11.33;;;6.37;;
7001;SDS011;3541;53.230;10.518;2024-02-21T07:50:11;13.47;;;7.60;;
7001;SDS011;3541;53.230;10.518;2024-02-21T07:52:37;10.73;;;7.33;;
7001;SDS011;3541;53.230;10.518;2024-02-21T07:55:04;14.53;;;7.40;;
7001;SDS011;3541;53.230;10.518;2024-02-21T07:57:31;11.23;;;7.63;;
7001;SDS011;3541;53.230;10.518;2024-02-21T07:59:58;10.53;;;6.80;;
7001;SDS011;3541;53.230;10.518;2024-02-21T08:02:24;13.57;;;7.70;;
7001;SDS011;3541;53.230;10.518;2024-02-21T08:04:51;8.60;;;6.90;;
7001;SDS011;3541;53.230;10.518;2024-02-21T08:07:19;11.93;;;7.20;;
7001;SDS011;3541;53.230;10.518;2024-02-21T08:09:45;9.30;;;6.53;;
7001;SDS011;3541;53.230;10.518;2024-02-21T08:12:12;10.10;;;7.33;;
7001;SDS011;3541;53.230;10.518;2024-02-21T08:14:38;11.50;;;7.33;;
7001;SDS011;3541;53.230;10.518;2024-02-21T08:17:05;9.27;;;6.57;;
7001;SDS011;3541;53.230;10.518;2024-02-21T08:19:31;9.90;;;6.80;;
7001;SDS011;3541;53.230;10.518;2024-02-21T08:21:58;10.53;;;7.07;;
7001;SDS011;3541;53.230;10.518;2024-02-21T08:24:26;8.63;;;6.77;;
7001;SDS011;3541;53.230;10.518;2024-02-21T08:26:53;11.07;;;7.03;;
7001;SDS011;3541;53.230;10.518;2024-02-21T08:29:19;10.67;;;6.90;;
7001;SDS011;3541;53.230;10.518;2024-02-21T08:31:46;11.23;;;6.97;;
7001;SDS011;3541;53.230;10.518;2024-02-21T08:34:13;9.37;;;6.83;;
7001;SDS011;3541;53.230;10.518;2024-02-21T08:36:39;9.93;;;6.97;;
7001;SDS011;3541;53.230;10.518;2024-02-21T08:39:06;12.87;;;7.10;;
7001;SDS011;3541;53.230;10.518;2024-02-21T08:41:35;11.00;;;7.67;;
7001;SDS011;3541;53.230;10.518;2024-02-21T08:44:03;10.07;;;6.97;;
7001;SDS011;3541;53.230;10.518;2024-02-21T08:46:30;10.00;;;7.30;;
7001;SDS011;3541;53.230;10.518;2024-02-21T08:48:56;9.13;;;7.27;;
7001;SDS011;3541;53.230;10.518;2024-02-21T08:51:23;11.43;;;6.67;;
7001;SDS011;3541;53.230;10.518;2024-02-21T08:53:50;11.00;;;7.37;;
7001;SDS011;3541;53.230;10.518;2024-02-21T08:56:16;11.03;;;6.70;;
7001;SDS011;3541;53.230;10.518;2024-02-21T08:58:44;11.83;;;7.10;;
7001;SDS011;3541;53.230;10.518;2024-02-21T09:01:11;8.53;;;6.73;;
7001;SDS011;3541;53.230;10.518;2024-02-21T09:03:38;9.83;;;6.57;;
7001;SDS011;3541;53.230;10.518;2024-02-21T09:06:05;10.83;;;7.83;;
7001;SDS011;3541;53.230;10.518;2024-02-21T09:08:32;8.33;;;6.20;;
7001;SDS011;3541;53.230;10.518;2024-02-21T09:10:59;9.50;;;5.90;;
7001;SDS011;3541;53.230;10.518;2024-02-21T09:13:26;7.17;;;5.80;;
7001;SDS011;3541;53.230;10.518;2024-02-21T09:15:54;8.33;;;6.10;;
7001;SDS011;3541;53.230;10.518;2024-02-21T09:18:20;7.50;;;5.37;;
7001;SDS011;3541;53.230;10.518;2024-02-21T09:20:47;7.83;;;6.23;;
7001;SDS011;3541;53.230;10.518;2024-02-21T09:23:13;8.43;;;5.57;;
7001;SDS011;3541;53.230;10.518;2024-02-21T09:25:40;8.13;;;5.60;;
7001;SDS011;3541;53.230;10.518;2024-02-21T09:28:07;10.13;;;6.50;;
7001;SDS011;3541;53.230;10.518;2024-02-21T09:30:33;7.70;;;5.77;;
7001;SDS011;3541;53.230;10.518;2024-02-21T09:33:01;10.60;;;7.10;;
7001;SDS011;3541;53.230;10.518;2024-02-21T09:35:30;8.40;;;6.37;;
7001;SDS011;3541;53.230;10.518;2024-02-21T09:37:58;8.53;;;6.43;;
7001;SDS011;3541;53.230;10.518;2024-02-21T09:40:25;11.30;;;6.70;;
7001;SDS011;3541;53.230;10.518;2024-02-21T09:42:53;7.83;;;5.90;;
7001;SDS011;3541;53.230;10.518;2024-02-21T09:45:29;9.83;;;6.70;;
7001;SDS011;3541;53.230;10.518;2024-02-21T09:47:59;10.73;;;7.27;;
7001;SDS011;3541;53.230;10.518;2024-02-21T09:50:41;10.20;;;7.00;;
7001;SDS011;3541;53.230;10.518;2024-02-21T09:53:10;12.40;;;7.77;;
7001;SDS011;3541;53.230;10.518;2024-02-21T09:55:38;10.50;;;7.83;;
7001;SDS011;3541;53.230;10.518;2024-02-21T09:58:06;10.80;;;8.23;;
7001;SDS011;3541;53.230;10.518;2024-02-21T10:00:34;14.37;;;8.57;;
7001;SDS011;3541;53.230;10.518;2024-02-21T10:03:01;12.67;;;8.80;;
7001;SDS011;3541;53.230;10.518;2024-02-21T10:05:34;14.60;;;9.00;;
7001;SDS011;3541;53.230;10.518;2024-02-21T10:08:01;13.33;;;8.97;;
7001;SDS011;3541;53.230;10.518;2024-02-21T10:10:28;17.03;;;10.83;;
7001;SDS011;3541;53.230;10.518;2024-02-21T10:12:55;17.37;;;10.33;;
7001;SDS011;3541;53.230;10.518;2024-02-21T10:15:23;19.17;;;10.60;;
7001;SDS011;3541;53.230;10.518;2024-02-21T10:17:57;21.00;;;11.37;;
7001;SDS011;3541;53.230;10.518;2024-02-21T10:20:25;18.70;;;11.63;;
7001;SDS011;3541;53.230;10.518;2024-02-21T10:23:01;19.50;;;11.60;;
7001;SDS011;3541;53.230;10.518;2024-02-21T10:25:32;16.80;;;11.20;;
7001;SDS011;3541;53.230;10.518;2024-02-21T10:28:00;22.10;;;11.17;;
7001;SDS011;3541;53.230;10.518;2024-02-21T10:30:27;19.83;;;11.23;;
7001;SDS011;3541;53.230;10.518;2024-02-21T10:32:54;18.03;;;11.70;;
7001;SDS011;3541;53.230;10.518;2024-02-21T10:35:27;19.80;;;12.80;;
7001;SDS011;3541;53.230;10.518;2024-02-21T10:37:55;17.13;;;11.20;;
7001;SDS011;3541;53.230;10.518;2024-02-21T10:40:24;23.17;;;12.23;;
7001;SDS011;3541;53.230;10.518;2024-02-21T10:42:52;21.43;;;11.93;;
7001;SDS011;3541;53.230;10.518;2024-02-21T10:45:26;22.93;;;11.80;;
7001;SDS011;3541;53.230;10.518;2024-02-21T10:48:00;19.60;;;11.73;;
7001;SDS011;3541;53.230;10.518;2024-02-21T10:50:44;17.63;;;11.33;;
7001;SDS011;3541;53.230;10.518;2024-02-21T10:53:20;18.70;;;10.90;;
7001;SDS011;3541;53.230;10.518;2024-02-21T10:55:58;15.87;;;10.50;;
7001;SDS011;3541;53.230;10.518;2024-02-21T10:58:33;19.80;;;10.87;;
7001;SDS011;3541;53.230;10.518;2024-02-21T11:01:00;23.47;;;10.67;;
7001;SDS011;3541;53.230;10.518;2024-02-21T11:03:28;14.43;;;9.03;;
7001;SDS011;3541;53.230;10.518;2024-02-21T11:05:55;14.93;;;9.33;;
7001;SDS011;3541;53.230;10.518;2024-02-21T11:08:23;14.90;;;9.37;;
7001;SDS011;3541;53.230;10.518;2024-02-21T11:10:50;15.03;;;8.67;;
7001;SDS011;3541;53.230;10.518;2024-02-21T11:13:17;13.77;;;8.80;;
7001;SDS011;3541;53.230;10.518;2024-02-21T11:15:44;13.83;;;8.67;;
7001;SDS011;3541;53.230;10.518;2024-02-21T11:18:22;14.37;;;8.80;;
7001;SDS011;3541;53.230;10.518;2024-02-21T11:20:49;14.67;;;8.73;;
7001;SDS011;3541;53.230;10.518;2024-02-21T11:23:23;16.70;;;8.20;;
7001;SDS011;3541;53.230;10.518;2024-02-21T11:25:51;13.37;;;8.67;;
7001;SDS011;3541;53.230;10.518;2024-02-21T11:28:25;16.07;;;9.33;;
7001;SDS011;3541;53.230;10.518;2024-02-21T11:30:51;15.47;;;10.30;;
7001;SDS011;3541;53.230;10.518;2024-02-21T11:33:19;14.27;;;9.30;;
7001;SDS011;3541;53.230;10.518;2024-02-21T11:35:48;16.83;;;10.07;;
7001;SDS011;3541;53.230;10.518;2024-02-21T11:38:16;16.73;;;9.67;;
7001;SDS011;3541;53.230;10.518;2024-02-21T11:40:44;15.27;;;10.13;;
7001;SDS011;3541;53.230;10.518;2024-02-21T11:43:12;15.43;;;10.20;;
7001;SDS011;3541;53.230;10.518;2024-02-21T11:45:40;14.77;;;10.80;;
7001;SDS011;3541;53.230;10.518;2024-02-21T11:48:06;18.90;;;11.93;;
7001;SDS011;3541;53.230;10.518;2024-02-21T11:50:34;15.87;;;11.20;;
7001;SDS011;3541;53.230;10.518;2024-02-21T11:53:01;16.53;;;11.63;;
7001;SDS011;3541;53.230;10.518;2024-02-21T11:55:28;18.00;;;11.63;;
7001;SDS011;3541;53.230;10.518;2024-02-21T11:57:55;15.33;;;11.30;;
7001;SDS011;3541;53.230;10.518;2024-02-21T12:00:22;17.37;;;11.23;;
7001;SDS011;3541;53.230;10.518;2024-02-21T12:02:51;21.67;;;11.40;;
7001;SDS011;3541;53.230;10.518;2024-02-21T12:05:18;20.43;;;11.70;;
7001;SDS011;3541;53.230;10.518;2024-02-21T12:07:45;21.37;;;11.40;;
7001;SDS011;3541;53.230;10.518;2024-02-21T12:10:12;21.10;;;12.20;;
7001;SDS011;3541;53.230;10.518;2024-02-21T12:12:39;17.50;;;12.63;;
7001;SDS011;3541;53.230;10.518;2024-02-21T12:15:07;18.97;;;11.17;;
7001;SDS011;3541;53.230;10.518;2024-02-21T12:17:34;18.80;;;11.40;;
7001;SDS011;3541;53.230;10.518;2024-02-21T12:20:02;19.17;;;11.73;;
7001;SDS011;3541;53.230;10.518;2024-02-21T12:22:33;18.13;;;11.37;;
7001;SDS011;3541;53.230;10.518;2024-02-21T12:25:02;18.17;;;11.20;;
7001;SDS011;3541;53.230;10.518;2024-02-21T12:27:30;17.27;;;11.40;;
7001;SDS011;3541;53.230;10.518;2024-02-21T12:29:57;16.50;;;10.43;;
7001;SDS011;3541;53.230;10.518;2024-02-21T12:32:23;16.67;;;10.93;;
7001;SDS011;3541;53.230;10.518;2024-02-21T12:34:50;21.77;;;11.30;;
7001;SDS011;3541;53.230;10.518;2024-02-21T12:37:18;18.20;;;10.63;;
7001;SDS011;3541;53.230;10.518;2024-02-21T12:39:44;19.03;;;10.87;;
7001;SDS011;3541;53.230;10.518;2024-02-21T12:42:11;17.83;;;10.53;;
7001;SDS011;3541;53.230;10.518;2024-02-21T12:44:37;17.30;;;9.57;;
7001;SDS011;3541;53.230;10.518;2024-02-21T12:47:04;15.00;;;9.73;;
7001;SDS011;3541;53.230;10.518;2024-02-21T12:49:31;15.90;;;10.13;;
7001;SDS011;3541;53.230;10.518;2024-02-21T12:51:57;14.33;;;8.57;;
7001;SDS011;3541;53.230;10.518;2024-02-21T12:54:25;13.33;;;8.40;;
7001;SDS011;3541;53.230;10.518;2024-02-21T12:56:52;16.13;;;8.57;;
7001;SDS011;3541;53.230;10.518;2024-02-21T12:59:18;11.90;;;7.37;;
7001;SDS011;3541;53.230;10.518;2024-02-21T13:01:45;14.30;;;8.30;;
7001;SDS011;3541;53.230;10.518;2024-02-21T13:04:12;14.93;;;7.17;;
7001;SDS011;3541;53.230;10.518;2024-02-21T13:06:39;12.43;;;7.90;;
7001;SDS011;3541;53.230;10.518;2024-02-21T13:09:05;13.13;;;7.87;;
7001;SDS011;3541;53.230;10.518;2024-02-21T13:11:37;13.23;;;7.77;;
7001;SDS011;3541;53.230;10.518;2024-02-21T13:14:04;12.90;;;7.37;;
7001;SDS011;3541;53.230;10.518;2024-02-21T13:16:30;10.13;;;7.03;;
7001;SDS011;3541;53.230;10.518;2024-02-21T13:18:59;12.60;;;7.00;;
7001;SDS011;3541;53.230;10.518;2024-02-21T13:21:25;10.63;;;6.47;;
7001;SDS011;3541;53.230;10.518;2024-02-21T13:23:52;10.63;;;6.43;;
7001;SDS011;3541;53.230;10.518;2024-02-21T13:26:18;14.10;;;7.27;;
7001;SDS011;3541;53.230;10.518;2024-02-21T13:28:46;15.23;;;9.83;;
7001;SDS011;3541;53.230;10.518;2024-02-21T13:31:13;9.33;;;6.33;;
7001;SDS011;3541;53.230;10.518;2024-02-21T13:33:41;10.53;;;6.83;;
7001;SDS011;3541;53.230;10.518;2024-02-21T13:36:09;13.37;;;6.43;;
7001;SDS011;3541;53.230;10.518;2024-02-21T13:38:36;11.90;;;6.00;;
7001;SDS011;3541;53.230;10.518;2024-02-21T13:41:03;12.23;;;6.57;;
7001;SDS011;3541;53.230;10.518;2024-02-21T13:43:30;9.90;;;5.60;;
7001;SDS011;3541;53.230;10.518;2024-02-21T13:45:59;7.77;;;5.30;;
7001;SDS011;3541;53.230;10.518;2024-02-21T13:48:30;10.03;;;5.07;;
7001;SDS011;3541;53.230;10.518;2024-02-21T13:50:58;12.77;;;4.70;;
7001;SDS011;3541;53.230;10.518;2024-02-21T13:53:26;12.33;;;5.53;;
7001;SDS011;3541;53.230;10.518;2024-02-21T13:55:53;42.00;;;23.37;;
7001;SDS011;3541;53.230;10.518;2024-02-21T13:58:19;9.27;;;6.30;;
7001;SDS011;3541;53.230;10.518;2024-02-21T14:00:47;7.33;;;4.93;;
7001;SDS011;3541;53.230;10.518;2024-02-21T14:03:15;7.10;;;4.80;;
7001;SDS011;3541;53.230;10.518;2024-02-21T14:05:43;7.63;;;4.50;;
7001;SDS011;3541;53.230;10.518;2024-02-21T14:08:09;7.77;;;4.20;;
7001;SDS011;3541;53.230;10.518;2024-02-21T14:10:36;10.33;;;4.50;;
7001;SDS011;3541;53.230;10.518;2024-02-21T14:13:03;9.53;;;3.93;;
7001;SDS011;3541;53.230;10.518;2024-02-21T14:15:29;7.80;;;4.37;;
7001;SDS011;3541;53.230;10.518;2024-02-21T14:17:56;7.63;;;4.07;;
7001;SDS011;3541;53.230;10.518;2024-02-21T14:20:24;14.63;;;8.47;;
7001;SDS011;3541;53.230;10.518;2024-02-21T14:22:50;24.30;;;10.40;;
7001;SDS011;3541;53.230;10.518;2024-02-21T14:25:17;6.50;;;4.07;;
7001;SDS011;3541;53.230;10.518;2024-02-21T14:27:44;7.03;;;3.60;;
7001;SDS011;3541;53.230;10.518;2024-02-21T14:30:10;7.83;;;4.40;;
7001;SDS011;3541;53.230;10.518;2024-02-21T14:32:37;8.80;;;3.73;;
7001;SDS011;3541;53.230;10.518;2024-02-21T14:35:06;10.40;;;4.47;;
7001;SDS011;3541;53.230;10.518;2024-02-21T14:37:33;5.37;;;3.40;;
7001;SDS011;3541;53.230;10.518;2024-02-21T14:40:00;8.17;;;4.60;;
7001;SDS011;3541;53.230;10.518;2024-02-21T14:42:27;6.90;;;4.17;;